Time;durP1;ratioP1;P1;durP2;ratioP2;P2;SDS_P1;SDS_P2;PMS_P1;PMS_P2;Temp;Humidity;BMP_temperature;BMP_pressure;BME280_temperature;BME280_humidity;BME280_pressure;Samples;Min_cycle;Max_cycle;Signal;HPM_P1;HPM_P2
2023/07/19 00:01:21;;;;;;;3.83;0.98;;;;;;;19.88;38.52;97490.81;10498310;28;20162;-78
2023/07/19 00:06:43;;;;;;;4.13;1.00;;;;;;;19.82;39.10;97496.34;10512406;28;20602;-78
2023/07/19 00:12:05;;;;;;;5.10;1.17;;;;;;;19.78;39.22;97499.03;10498621;28;20044;-78
2023/07/19 00:17:26;;;;;;;3.30;1.10;;;;;;;19.77;39.29;97497.59;10511808;28;20162;-80
2023/07/19 00:22:46;;;;;;;5.72;1.00;;;;;;;19.65;39.19;97490.22;10540715;28;20115;-78
2023/07/19 00:28:07;;;;;;;4.60;0.82;;;;;;;19.57;39.32;97495.66;10511430;28;20111;-78
2023/07/19 00:33:28;;;;;;;3.92;0.90;;;;;;;19.50;39.64;97496.84;10511468;28;20131;-78
2023/07/19 00:38:50;;;;;;;6.07;0.88;;;;;;;19.44;39.67;97493.84;10524966;28;20119;-78
2023/07/19 00:44:11;;;;;;;6.22;1.10;;;;;;;19.36;40.02;97493.59;10497603;28;20067;-79
2023/07/19 00:49:32;;;;;;;3.72;1.05;;;;;;;19.33;40.04;97486.44;10539862;28;20043;-78
2023/07/19 00:54:53;;;;;;;2.60;0.85;;;;;;;19.25;39.98;97477.72;10510335;28;20063;-79
2023/07/19 01:00:14;;;;;;;2.75;1.10;;;;;;;19.14;40.12;97483.06;10510867;28;20071;-79
2023/07/19 01:05:35;;;;;;;2.08;0.80;;;;;;;19.15;40.40;97484.53;10511377;28;20063;-78
2023/07/19 01:10:56;;;;;;;4.85;1.27;;;;;;;19.09;40.82;97481.50;10510616;28;20075;-78
2023/07/19 01:16:17;;;;;;;2.65;0.90;;;;;;;19.06;40.79;97485.66;10510326;28;20040;-78
2023/07/19 01:21:37;;;;;;;2.38;0.90;;;;;;;19.03;40.71;97483.44;10524001;28;20089;-78
2023/07/19 01:26:58;;;;;;;2.95;0.70;;;;;;;18.96;40.95;97471.22;10524190;28;20051;-79
2023/07/19 01:32:32;;;;;;;3.00;0.93;;;;;;;18.94;41.24;97484.56;10499726;28;20119;-78
2023/07/19 01:37:53;;;;;;;3.00;1.02;;;;;;;18.95;41.25;97474.72;10496038;28;20071;-78
2023/07/19 01:43:15;;;;;;;2.40;0.88;;;;;;;18.95;41.11;97469.78;10509832;28;20489;-78
2023/07/19 01:48:36;;;;;;;3.88;0.90;;;;;;;18.89;41.62;97466.75;10509887;28;20205;-79
2023/07/19 01:53:58;;;;;;;4.57;0.90;;;;;;;18.84;41.85;97465.19;10509894;28;20067;-79
2023/07/19 01:59:19;;;;;;;3.47;0.93;;;;;;;18.80;41.70;97462.22;10495616;28;20044;-79
2023/07/19 02:04:39;;;;;;;2.30;1.15;;;;;;;18.80;41.61;97453.75;10495559;28;20539;-78
2023/07/19 02:10:02;;;;;;;2.13;1.08;;;;;;;18.78;42.00;97462.91;10527612;28;20068;-79
2023/07/19 02:15:23;;;;;;;3.92;1.13;;;;;;;18.77;42.04;97463.56;10516647;28;20119;-79
2023/07/19 02:20:45;;;;;;;4.15;1.08;;;;;;;18.77;41.91;97458.63;10502341;28;20068;-79
2023/07/19 02:26:05;;;;;;;2.47;1.00;;;;;;;18.81;42.20;97452.38;10516235;28;20115;-79
2023/07/19 02:31:26;;;;;;;5.68;1.13;;;;;;;18.88;42.07;97454.00;10515960;28;20387;-80
2023/07/19 02:36:48;;;;;;;3.95;1.05;;;;;;;18.80;42.34;97457.28;10502388;28;20500;-80
2023/07/19 02:42:12;;;;;;;7.45;1.20;;;;;;;18.71;42.35;97452.06;10516397;28;20157;-80
2023/07/19 02:47:33;;;;;;;2.05;0.80;;;;;;;18.59;42.73;97463.69;10529238;28;20067;-78
2023/07/19 02:52:53;;;;;;;2.47;0.90;;;;;;;18.46;42.79;97451.28;10501250;28;20496;-80
2023/07/19 02:58:14;;;;;;;4.38;1.20;;;;;;;18.42;43.22;97465.25;10514675;28;20114;-80
2023/07/19 03:03:34;;;;;;;4.32;1.20;;;;;;;18.42;43.32;97465.25;10514489;28;20116;-80
2023/07/19 03:08:55;;;;;;;3.00;0.88;;;;;;;18.58;43.33;97473.53;10500492;28;20115;-80
2023/07/19 03:14:16;;;;;;;6.00;0.90;;;;;;;18.72;43.35;97470.47;10514232;28;20063;-78
2023/07/19 03:19:37;;;;;;;2.83;0.98;;;;;;;18.79;43.14;97477.75;10527705;28;20490;-80
2023/07/19 03:24:58;;;;;;;2.25;0.80;;;;;;;18.84;43.04;97482.88;10499739;28;20082;-80
2023/07/19 03:30:19;;;;;;;3.83;0.88;;;;;;;18.98;43.55;97484.69;10499636;28;20068;-77
2023/07/19 03:35:40;;;;;;;5.70;0.90;;;;;;;19.07;43.08;97478.63;10527364;28;20070;-78
2023/07/19 03:41:07;;;;;;;5.88;1.13;;;;;;;19.15;42.97;97489.47;10513238;28;20047;-80
2023/07/19 03:46:28;;;;;;;3.60;1.10;;;;;;;19.29;43.01;97501.19;10498965;28;20446;-81
2023/07/19 03:51:50;;;;;;;5.80;0.95;;;;;;;19.39;42.64;97487.31;10513031;28;20113;-81
2023/07/19 03:57:12;;;;;;;6.28;1.25;;;;;;;19.49;42.68;97478.41;10499069;28;20500;-78
2023/07/19 04:02:34;;;;;;;2.08;1.10;;;;;;;19.56;42.58;97482.16;10498292;28;20114;-80
2023/07/19 04:08:01;;;;;;;4.03;0.95;;;;;;;19.68;42.28;97493.81;10512291;28;20036;-81
2023/07/19 04:13:23;;;;;;;4.63;1.17;;;;;;;19.85;42.36;97500.66;10512578;28;20040;-80
2023/07/19 04:18:44;;;;;;;5.32;1.20;;;;;;;19.94;42.20;97502.31;10511760;28;20067;-80
2023/07/19 04:24:04;;;;;;;5.25;1.40;;;;;;;20.02;41.97;97517.44;10511568;28;20134;-77
2023/07/19 04:29:26;;;;;;;3.20;0.85;;;;;;;20.18;41.61;97514.31;10497461;28;20064;-77
2023/07/19 04:34:47;;;;;;;5.65;1.20;;;;;;;20.29;41.34;97518.13;10483012;28;20127;-77
2023/07/19 04:40:11;;;;;;;2.80;1.10;;;;;;;20.35;41.22;97509.78;10510818;28;20116;-77
2023/07/19 04:45:33;;;;;;;2.45;1.02;;;;;;;20.57;41.20;97501.16;10498213;28;20493;-77
2023/07/19 04:50:55;;;;;;;3.88;1.23;;;;;;;21.06;40.77;97505.13;10510762;28;20044;-79
2023/07/19 04:56:16;;;;;;;3.00;1.08;;;;;;;21.55;40.16;97498.41;10496849;28;20064;-77
2023/07/19 05:01:38;;;;;;;2.08;0.73;;;;;;;21.72;39.93;97510.81;10496838;28;20124;-79
2023/07/19 05:06:59;;;;;;;4.43;0.88;;;;;;;21.71;39.52;97515.78;10497045;28;20064;-80
2023/07/19 05:12:23;;;;;;;4.15;0.90;;;;;;;22.00;39.34;97514.22;10497352;28;20075;-79
2023/07/19 05:17:44;;;;;;;2.15;1.00;;;;;;;22.81;39.05;97503.53;10510215;28;20585;-74
2023/07/19 05:23:05;;;;;;;4.22;0.90;;;;;;;23.62;38.03;97506.84;10523638;28;20580;-73
2023/07/19 05:28:26;;;;;;;5.13;1.00;;;;;;;24.49;36.97;97492.81;10509915;28;20072;-72
2023/07/19 05:33:47;;;;;;;4.38;1.15;;;;;;;25.50;35.61;97492.09;10523985;28;20080;-73
2023/07/19 05:39:08;;;;;;;6.95;2.03;;;;;;;26.16;34.40;97493.03;10524197;28;20047;-72
2023/07/19 05:44:29;;;;;;;4.72;1.83;;;;;;;26.67;33.23;97493.09;10512286;28;20044;-72
2023/07/19 05:49:49;;;;;;;5.10;1.20;;;;;;;26.92;32.33;97505.97;10513253;28;20060;-72
2023/07/19 05:55:10;;;;;;;4.25;1.05;;;;;;;27.21;32.00;97488.75;10527421;28;20063;-72
2023/07/19 06:00:31;;;;;;;3.38;1.30;;;;;;;27.45;30.47;97494.44;10530239;28;20111;-73
2023/07/19 06:05:51;;;;;;;5.28;0.90;;;;;;;27.97;30.19;97489.94;10530875;28;20070;-72
2023/07/19 06:11:12;;;;;;;10.50;1.17;;;;;;;28.73;29.64;97498.75;10530296;28;20047;-71
2023/07/19 06:16:33;;;;;;;4.28;1.45;;;;;;;29.39;28.29;97496.00;10513306;28;20067;-70
2023/07/19 06:21:54;;;;;;;2.92;1.33;;;;;;;29.73;27.28;97489.88;10514918;28;20437;-68
2023/07/19 06:27:16;;;;;;;4.47;1.02;;;;;;;29.56;26.50;97497.28;10529853;28;20082;-71
2023/07/19 06:32:38;;;;;;;6.03;1.05;;;;;;;29.74;26.70;97493.47;10502994;28;20052;-68
2023/07/19 06:37:59;;;;;;;5.00;1.20;;;;;;;29.95;25.96;97496.81;10502599;28;20048;-69
2023/07/19 06:43:21;;;;;;;5.88;1.23;;;;;;;29.82;25.44;97502.72;10533892;28;20374;-69
2023/07/19 06:48:43;;;;;;;5.22;1.17;;;;;;;29.29;25.72;97502.59;10529177;28;20429;-70
2023/07/19 06:54:05;;;;;;;3.63;1.10;;;;;;;29.06;26.34;97507.84;10527850;28;20131;-74
2023/07/19 06:59:35;;;;;;;6.80;1.23;;;;;;;29.47;25.42;97504.53;10529716;28;20130;-72
2023/07/19 07:04:57;;;;;;;4.03;1.10;;;;;;;29.46;25.40;97506.00;10514566;28;20040;-73
2023/07/19 07:10:24;;;;;;;7.30;1.80;;;;;;;28.98;26.06;97500.00;10500460;28;20101;-75
2023/07/19 07:15:51;;;;;;;5.07;1.60;;;;;;;29.70;25.90;97502.13;10515106;28;20071;-74
2023/07/19 07:21:13;;;;;;;4.15;1.40;;;;;;;31.01;24.81;97493.75;10501046;28;20044;-71
2023/07/19 07:26:35;;;;;;;3.75;1.23;;;;;;;30.99;24.01;97488.03;10501031;28;20040;-69
2023/07/19 07:31:57;;;;;;;8.25;1.20;;;;;;;31.12;24.11;97487.81;10485803;28;20064;-84
2023/07/19 07:37:18;;;;;;;9.13;1.20;;;;;;;32.32;23.49;97482.50;10471616;28;20398;-82
2023/07/19 07:42:40;;;;;;;9.40;1.20;;;;;;;33.43;22.31;97475.41;10471227;28;20049;-77
2023/07/19 07:48:02;;;;;;;5.15;1.20;;;;;;;34.66;21.60;97470.28;10471194;28;20046;-74
2023/07/19 07:53:24;;;;;;;3.22;0.98;;;;;;;35.23;19.39;97456.75;10484497;28;20497;-74
2023/07/19 07:58:45;;;;;;;5.90;1.65;;;;;;;35.27;19.51;97457.31;10484878;28;20402;-74
2023/07/19 08:04:07;;;;;;;;;;;;;;;35.46;18.92;97453.78;10457030;28;20071;-75
2023/07/19 08:09:30;;;;;;;6.28;1.38;;;;;;;35.40;19.17;97465.59;10484481;28;19920;-74
2023/07/19 08:14:51;;;;;;;;;;;;;;;35.69;18.68;97453.66;10474366;28;20044;-75
2023/07/19 08:20:13;;;;;;;3.72;1.23;;;;;;;35.96;17.80;97447.56;10540478;28;19936;-75
2023/07/19 08:25:34;;;;;;;4.70;1.10;;;;;;;34.92;18.30;97437.50;10525465;28;20051;-75
2023/07/19 08:30:55;;;;;;;4.68;1.52;;;;;;;34.67;18.78;97431.13;10510963;28;20489;-74
2023/07/19 08:36:17;;;;;;;3.75;0.88;;;;;;;34.61;18.88;97428.41;10511075;28;20048;-74
2023/07/19 08:41:39;;;;;;;6.95;1.27;;;;;;;35.45;18.42;97420.44;10524826;28;20477;-75
2023/07/19 08:47:01;;;;;;;;;;;;;;;36.04;17.48;97424.03;10497172;28;20044;-75
2023/07/19 08:52:23;;;;;;;2.92;1.20;;;;;;;36.48;16.99;97418.66;10510998;28;20358;-75
2023/07/19 08:57:45;;;;;;;3.08;0.90;;;;;;;35.79;16.50;97419.13;10496688;28;20489;-75
2023/07/19 09:03:06;;;;;;;3.75;0.90;;;;;;;36.71;16.21;97420.59;10510471;28;20045;-75
2023/07/19 09:08:38;;;;;;;5.80;0.80;;;;;;;37.31;16.03;97419.50;10523770;28;20040;-74
2023/07/19 09:13:59;;;;;;;5.28;1.30;;;;;;;36.55;15.61;97413.97;10510868;28;20047;-75
2023/07/19 09:19:20;;;;;;;5.63;1.13;;;;;;;37.03;15.26;97412.72;10515948;28;20506;-75
2023/07/19 09:25:03;;;;;;;4.40;1.08;;;;;;;37.39;15.61;97405.28;10532521;28;20542;-74
2023/07/19 09:30:24;;;;;;;3.70;0.88;;;;;;;37.32;15.05;97409.28;10516875;28;20482;-75
2023/07/19 09:35:44;;;;;;;2.45;0.98;;;;;;;36.65;15.28;97401.91;10518162;28;20044;-75
2023/07/19 09:41:05;;;;;;;4.28;0.95;;;;;;;35.76;15.75;97394.59;10517668;28;20039;-75
2023/07/19 09:46:27;;;;;;;2.97;1.10;;;;;;;35.63;15.88;97404.56;10499791;28;20493;-75
2023/07/19 09:51:48;;;;;;;4.32;1.08;;;;;;;35.43;15.76;97395.13;10499176;28;20046;-75
2023/07/19 09:57:09;;;;;;;;;;;;;;;35.41;16.58;97392.28;10513912;28;20035;-75
2023/07/19 10:02:30;;;;;;;2.78;1.00;;;;;;;36.06;16.26;97386.88;10517488;28;20010;-75
2023/07/19 10:07:51;;;;;;;3.70;0.90;;;;;;;36.27;16.06;97383.16;10503148;28;20042;-75
2023/07/19 10:13:14;;;;;;;2.33;0.98;;;;;;;36.65;15.66;97367.03;10501687;28;20546;-73
2023/07/19 10:18:35;;;;;;;4.07;1.10;;;;;;;36.91;15.20;97367.41;10503385;28;20112;-74
2023/07/19 10:24:07;;;;;;;3.60;0.98;;;;;;;36.56;15.29;97359.44;10501941;28;20481;-75
2023/07/19 10:29:47;;;;;;;2.50;0.90;;;;;;;36.11;15.25;97344.59;10501952;28;20048;-75
2023/07/19 10:35:29;;;;;;;3.50;0.93;;;;;;;36.96;15.84;97339.56;10517719;28;20040;-75
2023/07/19 10:41:01;;;;;;;2.80;0.80;;;;;;;37.46;14.44;97332.97;10502599;28;20542;-76
2023/07/19 10:46:22;;;;;;;3.60;1.00;;;;;;;36.71;14.86;97324.69;10502369;28;20115;-87
2023/07/19 10:51:52;;;;;;;2.47;0.70;;;;;;;36.47;15.21;97330.03;10502436;28;20381;-90
2023/07/19 10:57:14;;;;;;;2.83;0.90;;;;;;;35.66;15.41;97315.91;10502198;28;20093;-89
2023/07/19 11:02:35;;;;;;;3.80;1.00;;;;;;;35.77;15.65;97314.72;10501283;28;20093;-89
2023/07/19 11:07:56;;;;;;;2.03;0.88;;;;;;;36.24;15.28;97315.03;10498422;28;20072;-89
2023/07/19 11:13:19;;;;;;;5.85;0.93;;;;;;;36.22;15.61;97321.63;10496259;28;20139;-88
2023/07/19 11:18:40;;;;;;;2.25;1.00;;;;;;;36.75;15.75;97315.75;10495832;28;20401;-89
2023/07/19 11:24:02;;;;;;;2.00;1.05;;;;;;;37.05;15.33;97290.44;10499216;28;20040;-88
2023/07/19 11:29:29;;;;;;;3.47;1.00;;;;;;;36.61;15.12;97285.13;10501021;28;20048;-89
2023/07/19 11:34:52;;;;;;;4.43;0.98;;;;;;;37.56;15.14;97300.47;10499820;28;20087;-89
2023/07/19 11:40:15;;;;;;;12.18;1.40;;;;;;;38.04;14.96;97290.88;10499781;28;20046;-89
2023/07/19 11:45:37;;;;;;;5.07;1.10;;;;;;;38.41;14.62;97280.31;10499765;28;20126;-87
2023/07/19 11:50:58;;;;;;;2.75;1.08;;;;;;;37.25;14.67;97281.50;10498575;28;20051;-79
2023/07/19 11:56:19;;;;;;;20.23;2.75;;;;;;;36.76;15.01;97277.16;10512398;28;20055;-70
2023/07/19 12:01:42;;;;;;;4.18;1.38;;;;;;;37.53;14.73;97255.47;10541102;28;20470;-71
2023/07/19 12:07:03;;;;;;;5.05;1.27;;;;;;;36.02;15.03;97246.97;10526869;28;20068;-71
2023/07/19 12:12:24;;;;;;;2.53;0.85;;;;;;;35.50;15.82;97247.59;10540663;28;20048;-71
2023/07/19 12:17:44;;;;;;;;;;;;;;;36.40;16.28;97233.00;10507941;28;20452;-71
2023/07/19 12:23:05;;;;;;;5.38;1.10;;;;;;;36.43;15.86;97234.31;10506754;28;19920;-70
2023/07/19 12:28:26;;;;;;;8.55;1.23;;;;;;;36.77;15.59;97225.53;10521636;28;20539;-71
2023/07/19 12:33:49;;;;;;;3.58;1.48;;;;;;;36.19;15.63;97226.63;10509806;28;20059;-71
2023/07/19 12:39:10;;;;;;;2.25;1.23;;;;;;;35.94;15.88;97210.25;10525376;28;20047;-71
2023/07/19 12:44:31;;;;;;;4.43;1.05;;;;;;;36.25;15.85;97211.84;10540107;28;20470;-71
2023/07/19 12:49:52;;;;;;;;;;;;;;;36.07;15.78;97210.44;10525157;28;20504;-71
2023/07/19 12:55:13;;;;;;;3.65;1.30;;;;;;;35.63;16.51;97216.59;10539145;28;19923;-71
2023/07/19 13:00:36;;;;;;;2.20;1.02;;;;;;;35.18;16.33;97208.97;10524599;28;20096;-71
2023/07/19 13:05:58;;;;;;;3.42;1.50;;;;;;;34.95;16.81;97201.13;10524893;28;20044;-71
2023/07/19 13:11:19;;;;;;;4.78;1.15;;;;;;;34.69;16.90;97199.91;10539634;28;20465;-71
2023/07/19 13:16:40;;;;;;;3.08;1.50;;;;;;;34.37;17.44;97201.06;10510408;28;20048;-71
2023/07/19 13:22:02;;;;;;;2.67;1.20;;;;;;;33.89;17.35;97181.03;10524186;28;20044;-71
2023/07/19 13:27:22;;;;;;;;;;;;;;;33.11;18.53;97177.03;10539622;28;20043;-71
2023/07/19 13:32:43;;;;;;;3.92;1.27;;;;;;;32.29;19.25;97192.38;10523829;28;19924;-71
2023/07/19 13:38:04;;;;;;;2.10;1.10;;;;;;;31.69;20.89;97190.31;10538854;28;20063;-71
2023/07/19 13:43:27;;;;;;;7.00;1.60;;;;;;;31.57;21.26;97193.50;10510330;28;20055;-71
2023/07/19 13:48:48;;;;;;;7.35;1.30;;;;;;;32.32;21.75;97176.44;10524351;28;20036;-71
2023/07/19 13:54:10;;;;;;;2.90;1.40;;;;;;;32.56;21.98;97175.03;10523731;28;20482;-71
2023/07/19 13:59:31;;;;;;;3.40;1.33;;;;;;;32.16;22.20;97171.81;10495644;28;20386;-71
2023/07/19 14:04:52;;;;;;;3.90;1.30;;;;;;;32.03;21.98;97182.97;10513844;28;20075;-71
2023/07/19 14:10:12;;;;;;;6.40;1.63;;;;;;;31.46;22.64;97178.63;10546131;28;20449;-70
2023/07/19 14:15:33;;;;;;;10.00;2.20;;;;;;;30.73;24.56;97186.03;10545533;28;20048;-71
2023/07/19 14:20:54;;;;;;;12.00;2.70;;;;;;;29.79;26.61;97170.53;10545619;28;20067;-71
2023/07/19 14:26:15;;;;;;;6.87;2.00;;;;;;;29.28;30.09;97168.50;10545284;28;20075;-71
2023/07/19 14:31:36;;;;;;;8.15;2.00;;;;;;;29.06;31.41;97160.22;10544779;28;20542;-70
2023/07/19 14:36:56;;;;;;;5.35;1.77;;;;;;;28.46;33.39;97163.13;10545067;28;20071;-70
2023/07/19 14:42:17;;;;;;;6.50;2.20;;;;;;;27.65;35.56;97169.72;10529370;28;20504;-70
2023/07/19 14:47:38;;;;;;;4.32;1.85;;;;;;;27.07;38.83;97175.16;10515475;28;20119;-68
2023/07/19 14:52:58;;;;;;;7.95;1.73;;;;;;;27.04;40.30;97161.59;10544210;28;20508;-70
2023/07/19 14:58:28;;;;;;;5.80;2.22;;;;;;;27.69;41.44;97146.03;10544082;28;20442;-70
2023/07/19 15:03:49;;;;;;;7.10;1.50;;;;;;;28.41;41.25;97138.09;10543906;28;20529;-68
2023/07/19 15:09:10;;;;;;;5.18;1.98;;;;;;;28.55;41.91;97126.44;10528592;28;20075;-70
2023/07/19 15:14:32;;;;;;;6.40;1.80;;;;;;;28.89;42.34;97142.50;10528319;28;20094;-70
2023/07/19 15:19:53;;;;;;;3.92;2.05;;;;;;;29.23;41.70;97141.25;10543127;28;20363;-70
2023/07/19 15:25:16;;;;;;;7.30;2.10;;;;;;;29.21;41.03;97158.53;10513807;28;20120;-70
2023/07/19 15:30:37;;;;;;;6.85;1.90;;;;;;;28.90;40.90;97212.84;10527635;28;20270;-70
2023/07/19 15:35:59;;;;;;;6.90;2.05;;;;;;;28.48;40.72;97226.28;10527447;28;20124;-71
2023/07/19 15:41:20;;;;;;;4.57;1.70;;;;;;;27.70;40.88;97202.66;10527623;28;20075;-69
2023/07/19 15:46:41;;;;;;;5.32;1.60;;;;;;;26.84;42.46;97199.63;10542069;28;20375;-67
2023/07/19 15:52:02;;;;;;;6.18;1.77;;;;;;;26.32;43.09;97184.09;10526888;28;20051;-70
2023/07/19 15:57:22;;;;;;;4.63;1.83;;;;;;;26.17;43.75;97174.84;10526419;28;20512;-67
2023/07/19 16:02:43;;;;;;;4.85;1.88;;;;;;;26.23;44.92;97179.81;10541594;28;20121;-67
2023/07/19 16:08:04;;;;;;;5.75;1.80;;;;;;;26.50;44.77;97180.47;10526837;28;20047;-68
2023/07/19 16:13:25;;;;;;;4.82;1.55;;;;;;;26.89;44.50;97160.22;10525887;28;20123;-68
2023/07/19 16:18:45;;;;;;;5.55;1.70;;;;;;;27.15;43.41;97165.81;10525632;28;20072;-67
2023/07/19 16:24:06;;;;;;;4.75;1.70;;;;;;;27.27;43.42;97170.75;10525361;28;20120;-67
2023/07/19 16:29:27;;;;;;;3.80;1.42;;;;;;;27.49;42.91;97173.41;10539503;28;20146;-67
2023/07/19 16:34:47;;;;;;;4.47;1.63;;;;;;;27.46;42.41;97166.28;10540938;28;20602;-68
2023/07/19 16:40:08;;;;;;;2.83;1.42;;;;;;;27.65;41.91;97153.25;10525285;28;20047;-68
2023/07/19 16:45:29;;;;;;;3.50;1.60;;;;;;;27.73;41.39;97148.88;10496794;28;20036;-67
2023/07/19 16:50:50;;;;;;;5.72;1.65;;;;;;;27.60;40.77;97151.84;10524934;28;20117;-68
2023/07/19 16:56:11;;;;;;;4.97;1.48;;;;;;;27.52;40.24;97146.19;10510812;28;20063;-66
2023/07/19 17:01:32;;;;;;;3.92;1.30;;;;;;;27.44;40.03;97151.97;10539674;28;20405;-70
2023/07/19 17:06:54;;;;;;;3.92;1.42;;;;;;;27.18;39.45;97149.31;10525107;28;20036;-67
2023/07/19 17:12:15;;;;;;;10.57;1.42;;;;;;;27.11;39.45;97157.25;10524531;28;20493;-67
2023/07/19 17:17:36;;;;;;;3.92;1.63;;;;;;;27.01;38.78;97149.41;10524761;28;20443;-67
2023/07/19 17:22:56;;;;;;;4.00;1.40;;;;;;;26.74;39.07;97143.16;10523966;28;20474;-68
2023/07/19 17:28:18;;;;;;;3.50;1.38;;;;;;;26.55;39.08;97146.84;10539091;28;20040;-68
2023/07/19 17:33:39;;;;;;;6.00;1.77;;;;;;;26.60;39.01;97133.91;10524089;28;20052;-67
2023/07/19 17:38:59;;;;;;;5.03;1.67;;;;;;;26.67;39.03;97123.88;10541819;28;20382;-68
2023/07/19 17:44:20;;;;;;;3.35;1.40;;;;;;;26.69;39.42;97141.03;10547220;28;20424;-70
2023/07/19 17:49:41;;;;;;;3.72;1.20;;;;;;;26.66;39.33;97134.59;10517249;28;20054;-68
2023/07/19 17:55:02;;;;;;;4.28;1.65;;;;;;;26.55;39.48;97141.81;10546404;28;20044;-68
2023/07/19 18:00:23;;;;;;;4.47;1.40;;;;;;;26.40;39.22;97132.59;10531235;28;20090;-67
2023/07/19 18:05:46;;;;;;;7.38;1.73;;;;;;;26.20;39.58;97144.09;10530996;28;20120;-68
2023/07/19 18:11:07;;;;;;;5.70;1.60;;;;;;;25.98;40.17;97150.59;10545978;28;20115;-68
2023/07/19 18:16:27;;;;;;;3.58;1.38;;;;;;;25.80;40.45;97150.63;10545859;28;20078;-67
2023/07/19 18:21:49;;;;;;;3.92;1.77;;;;;;;25.74;40.35;97154.22;10545737;28;20044;-69
2023/07/19 18:27:23;;;;;;;2.95;1.48;;;;;;;25.61;40.43;97169.94;10545316;28;20086;-68
2023/07/19 18:32:44;;;;;;;4.38;1.50;;;;;;;25.46;40.34;97166.34;10545461;28;20154;-68
2023/07/19 18:38:05;;;;;;;5.05;1.17;;;;;;;25.27;40.50;97168.50;10529644;28;20059;-67
2023/07/19 18:43:26;;;;;;;4.30;1.63;;;;;;;25.13;41.06;97171.34;10544710;28;20133;-70
2023/07/19 18:48:47;;;;;;;3.45;1.50;;;;;;;25.02;41.72;97184.91;10528945;28;20206;-67
2023/07/19 18:54:08;;;;;;;5.18;1.33;;;;;;;24.98;41.75;97181.28;10544348;28;20083;-68
2023/07/19 18:59:29;;;;;;;7.85;1.60;;;;;;;24.93;41.74;97191.28;10544202;28;20067;-67
2023/07/19 19:04:50;;;;;;;5.40;1.50;;;;;;;24.86;41.67;97201.25;10544138;28;20063;-68
2023/07/19 19:10:11;;;;;;;3.70;1.73;;;;;;;24.80;42.13;97211.22;10543744;28;20060;-68
2023/07/19 19:15:32;;;;;;;4.78;1.33;;;;;;;24.65;41.84;97229.00;10528305;28;20044;-67
2023/07/19 19:20:52;;;;;;;4.75;1.45;;;;;;;24.54;42.05;97236.81;10543282;28;20115;-68
2023/07/19 19:26:13;;;;;;;7.32;1.15;;;;;;;24.43;41.97;97256.00;10527972;28;20063;-67
2023/07/19 19:31:35;;;;;;;7.25;1.55;;;;;;;24.18;41.24;97255.13;10527845;28;20079;-67
2023/07/19 19:36:56;;;;;;;3.42;1.00;;;;;;;23.94;41.15;97272.06;10500239;28;20067;-68
2023/07/19 19:42:17;;;;;;;4.38;1.27;;;;;;;23.87;41.22;97276.28;10542362;28;20090;-67
2023/07/19 19:47:42;;;;;;;5.53;1.17;;;;;;;23.66;40.52;97261.88;10542731;28;20048;-67
2023/07/19 19:53:04;;;;;;;2.75;0.90;;;;;;;23.29;40.18;97249.41;10541792;28;20534;-68
2023/07/19 19:58:31;;;;;;;3.70;0.98;;;;;;;23.07;40.19;97263.44;10527810;28;20059;-67
2023/07/19 20:03:52;;;;;;;4.00;0.88;;;;;;;23.06;39.99;97268.38;10526408;28;20123;-67
2023/07/19 20:09:12;;;;;;;4.25;0.82;;;;;;;22.98;39.72;97267.59;10541327;28;20101;-68
2023/07/19 20:14:33;;;;;;;5.22;1.10;;;;;;;22.97;40.10;97275.41;10512401;28;20070;-67
2023/07/19 20:19:54;;;;;;;4.68;0.68;;;;;;;22.94;40.21;97279.63;10526322;28;20114;-67
2023/07/19 20:25:15;;;;;;;5.32;1.02;;;;;;;22.84;40.02;97282.38;10540824;28;20115;-68
2023/07/19 20:30:58;;;;;;;1.45;0.50;;;;;;;22.75;40.25;97289.34;10525133;28;20068;-67
2023/07/19 20:36:25;;;;;;;1.92;0.70;;;;;;;22.67;40.13;97292.06;10540245;28;20249;-67
2023/07/19 20:41:49;;;;;;;3.00;0.85;;;;;;;22.59;40.01;97303.38;10540378;28;20032;-68
2023/07/19 20:47:10;;;;;;;6.85;0.70;;;;;;;22.62;40.27;97307.66;10524882;28;20139;-68
2023/07/19 20:52:31;;;;;;;4.40;1.05;;;;;;;22.61;40.41;97315.47;10540016;28;20111;-67
2023/07/19 20:57:52;;;;;;;3.97;0.55;;;;;;;22.65;40.50;97324.06;10540539;28;20568;-67
2023/07/19 21:03:13;;;;;;;3.35;0.73;;;;;;;22.65;40.25;97318.38;10524601;28;20067;-67
2023/07/19 21:08:33;;;;;;;5.68;1.20;;;;;;;22.51;40.11;97316.06;10539641;28;20070;-67
2023/07/19 21:13:54;;;;;;;2.50;0.65;;;;;;;22.26;40.69;97319.97;10543253;28;20075;-67
2023/07/19 21:19:15;;;;;;;3.25;0.73;;;;;;;22.04;41.21;97316.75;10519713;28;20040;-67
2023/07/19 21:24:36;;;;;;;2.17;0.90;;;;;;;21.90;41.48;97326.47;10547901;28;20516;-67
2023/07/19 21:29:59;;;;;;;3.42;0.70;;;;;;;21.83;42.14;97327.06;10547674;28;20529;-68
2023/07/19 21:35:20;;;;;;;1.55;0.60;;;;;;;21.70;42.30;97340.34;10547090;28;20127;-68
2023/07/19 21:40:40;;;;;;;4.18;0.82;;;;;;;21.59;42.91;97333.03;10532208;28;20065;-66
2023/07/19 21:46:01;;;;;;;4.68;0.85;;;;;;;21.36;43.41;97346.84;10547175;28;20136;-67
2023/07/19 21:51:22;;;;;;;2.92;0.93;;;;;;;21.15;44.02;97345.00;10546831;28;20124;-68
2023/07/19 21:56:43;;;;;;;4.45;1.00;;;;;;;21.09;44.69;97353.38;10517827;28;20039;-67
2023/07/19 22:02:04;;;;;;;3.42;1.00;;;;;;;20.98;45.51;97360.25;10531137;28;20166;-68
2023/07/19 22:07:24;;;;;;;3.10;0.80;;;;;;;20.90;45.81;97374.25;10546207;28;20597;-68
2023/07/19 22:12:45;;;;;;;2.67;0.65;;;;;;;20.89;45.79;97358.63;10546067;28;20075;-68
2023/07/19 22:18:21;;;;;;;4.15;0.88;;;;;;;20.81;46.63;97345.72;10545887;28;20064;-67
2023/07/19 22:23:42;;;;;;;2.53;0.90;;;;;;;20.62;47.35;97343.88;10518738;28;20115;-68
2023/07/19 22:29:04;;;;;;;3.30;0.90;;;;;;;20.48;47.25;97337.91;10530329;28;20497;-67
2023/07/19 22:34:25;;;;;;;2.70;1.00;;;;;;;20.40;47.80;97346.94;10530385;28;20087;-67
2023/07/19 22:39:45;;;;;;;3.63;1.05;;;;;;;20.32;48.19;97343.91;10529809;28;20116;-67
2023/07/19 22:45:06;;;;;;;3.20;1.00;;;;;;;20.37;48.48;97348.28;10544790;28;20109;-67
2023/07/19 22:50:27;;;;;;;3.72;1.20;;;;;;;20.26;48.93;97340.91;10529678;28;20040;-67
2023/07/19 22:55:47;;;;;;;4.15;0.85;;;;;;;19.99;49.40;97333.94;10544318;28;20048;-67
2023/07/19 23:01:08;;;;;;;3.50;1.13;;;;;;;19.78;50.19;97317.81;10529236;28;20119;-67
2023/07/19 23:06:28;;;;;;;7.28;1.10;;;;;;;19.66;50.69;97321.78;10514733;28;20107;-67
2023/07/19 23:11:50;;;;;;;2.60;0.88;;;;;;;19.61;51.43;97313.88;10543791;28;20461;-68
2023/07/19 23:17:10;;;;;;;1.92;1.05;;;;;;;19.53;51.29;97308.69;10543544;28;20071;-67
2023/07/19 23:22:31;;;;;;;2.20;0.85;;;;;;;19.45;52.08;97308.47;10543399;28;20187;-67
2023/07/19 23:27:54;;;;;;;2.08;0.80;;;;;;;19.38;52.78;97313.25;10542913;28;20127;-67
2023/07/19 23:33:14;;;;;;;3.28;0.93;;;;;;;19.38;52.97;97310.44;10543275;28;20163;-67
2023/07/19 23:38:35;;;;;;;21.02;1.77;;;;;;;19.29;53.21;97303.13;10542217;28;20115;-66
2023/07/19 23:43:55;;;;;;;3.33;1.00;;;;;;;19.15;53.67;97306.28;10542367;28;20534;-67
2023/07/19 23:49:16;;;;;;;3.15;0.93;;;;;;;19.06;53.76;97304.63;10542356;28;20119;-67
2023/07/19 23:54:37;;;;;;;18.27;2.60;;;;;;;19.01;54.29;97305.19;10541928;28;20079;-67
2023/07/19 23:59:58;;;;;;;7.00;2.55;;;;;;;19.04;54.54;97310.25;10541773;28;20498;-68
